createdAt,value
2018-02-05T00:00:03.026Z,974.34
2018-02-05T00:00:13.209Z,974.36
2018-02-05T00:00:23.230Z,974.32
2018-02-05T00:00:33.316Z,974.36
2018-02-05T00:00:43.381Z,974.32
2018-02-05T00:00:53.421Z,974.32
2018-02-05T00:01:03.494Z,974.32
2018-02-05T00:01:13.528Z,974.34
2018-02-05T00:01:23.500Z,974.34
2018-02-05T00:01:33.674Z,974.36
2018-02-05T00:01:43.706Z,974.34
2018-02-05T00:01:53.788Z,974.36
2018-02-05T00:02:03.851Z,974.34
2018-02-05T00:02:13.900Z,974.38
2018-02-05T00:02:23.969Z,974.34
2018-02-05T00:02:34.009Z,974.36
2018-02-05T00:02:44.084Z,974.36
2018-02-05T00:02:54.144Z,974.32
2018-02-05T00:03:04.186Z,974.36
2018-02-05T00:03:14.274Z,974.36
2018-02-05T00:03:24.326Z,974.36
2018-02-05T00:03:34.377Z,974.36
2018-02-05T00:03:44.442Z,974.34
2018-02-05T00:03:54.483Z,974.32
2018-02-05T00:04:04.548Z,974.32
2018-02-05T00:04:14.592Z,974.36
2018-02-05T00:04:24.676Z,974.32
2018-02-05T00:04:34.733Z,974.36
2018-02-05T00:04:44.664Z,974.36
2018-02-05T00:04:54.852Z,974.36
2018-02-05T00:05:04.769Z,974.34
2018-02-05T00:05:14.959Z,974.36
2018-02-05T00:05:24.917Z,974.34
2018-02-05T00:05:35.061Z,974.36
2018-02-05T00:05:45.138Z,974.32
2018-02-05T00:05:55.202Z,974.32
2018-02-05T00:06:05.242Z,974.36
2018-02-05T00:06:15.318Z,974.36
2018-02-05T00:06:25.385Z,974.32
2018-02-05T00:06:35.425Z,974.36
2018-02-05T00:06:45.508Z,974.36
2018-02-05T00:06:55.560Z,974.34
2018-02-05T00:07:05.608Z,974.36
2018-02-05T00:07:15.678Z,974.32
2018-02-05T00:07:25.743Z,974.34
2018-02-05T00:07:35.791Z,974.34
2018-02-05T00:07:45.862Z,974.34
2018-02-05T00:07:55.898Z,974.32
2018-02-05T00:08:05.981Z,974.36
2018-02-05T00:08:16.064Z,974.34
2018-02-05T00:08:26.087Z,974.36
2018-02-05T00:08:36.160Z,974.34
2018-02-05T00:08:46.192Z,974.34
2018-02-05T00:08:56.275Z,974.32
2018-02-05T00:09:06.343Z,974.32
2018-02-05T00:09:16.391Z,974.34
2018-02-05T00:09:26.473Z,974.32
2018-02-05T00:09:36.500Z,974.32
2018-02-05T00:09:46.580Z,974.32
2018-02-05T00:09:56.650Z,974.32
2018-02-05T00:10:06.707Z,974.34
2018-02-05T00:10:16.762Z,974.34
2018-02-05T00:10:26.702Z,974.3
2018-02-05T00:10:36.872Z,974.32
2018-02-05T00:10:46.938Z,974.34
2018-02-05T00:10:56.994Z,974.34
2018-02-05T00:11:07.026Z,974.34
2018-02-05T00:11:16.996Z,974.34
2018-02-05T00:11:27.169Z,974.34
2018-02-05T00:11:37.223Z,974.34
2018-02-05T00:11:47.296Z,974.3
2018-02-05T00:11:57.335Z,974.34
2018-02-05T00:12:07.406Z,974.34
2018-02-05T00:12:17.438Z,974.34
2018-02-05T00:12:27.568Z,974.34
2018-02-05T00:12:37.591Z,974.34
2018-02-05T00:12:47.632Z,974.34
2018-02-05T00:12:57.704Z,974.34
2018-02-05T00:13:07.745Z,974.32
2018-02-05T00:13:18.047Z,974.34
2018-02-05T00:13:27.851Z,974.36
2018-02-05T00:13:37.932Z,974.34
2018-02-05T00:13:47.998Z,974.34
2018-02-05T00:13:58.028Z,974.32
2018-02-05T00:14:08.100Z,974.34
2018-02-05T00:14:18.171Z,974.34
2018-02-05T00:14:28.218Z,974.32
2018-02-05T00:14:38.291Z,974.34
2018-02-05T00:14:48.351Z,974.34
2018-02-05T00:14:58.398Z,974.36
2018-02-05T00:15:08.462Z,974.34
2018-02-05T00:15:18.505Z,974.34
2018-02-05T00:15:28.580Z,974.34
2018-02-05T00:15:38.646Z,974.34
2018-02-05T00:15:48.685Z,974.34
2018-02-05T00:15:58.768Z,974.32
2018-02-05T00:16:08.818Z,974.36
2018-02-05T00:16:18.868Z,974.36
2018-02-05T00:16:28.945Z,974.34
2018-02-05T00:16:38.977Z,974.36
2018-02-05T00:16:49.056Z,974.34
2018-02-05T00:16:59.123Z,974.34
2018-02-05T00:17:09.167Z,974.34
2018-02-05T00:17:19.237Z,974.34
2018-02-05T00:17:29.299Z,974.34
2018-02-05T00:17:39.343Z,974.36
2018-02-05T00:17:49.411Z,974.32
2018-02-05T00:17:59.447Z,974.34
2018-02-05T00:18:09.520Z,974.34
2018-02-05T00:18:19.606Z,974.32
2018-02-05T00:18:29.624Z,974.34
2018-02-05T00:18:39.706Z,974.34
2018-02-05T00:18:49.769Z,974.32
2018-02-05T00:18:59.810Z,974.3
2018-02-05T00:19:09.880Z,974.32
2018-02-05T00:19:19.925Z,974.32
2018-02-05T00:19:29.993Z,974.32
2018-02-05T00:19:40.057Z,974.3
2018-02-05T00:19:50.110Z,974.3
2018-02-05T00:20:00.206Z,974.3
2018-02-05T00:20:10.237Z,974.32
2018-02-05T00:20:20.302Z,974.32
2018-02-05T00:20:30.364Z,974.32
2018-02-05T00:20:40.407Z,974.34
2018-02-05T00:20:50.478Z,974.32
2018-02-05T00:21:00.545Z,974.34
2018-02-05T00:21:10.587Z,974.34
2018-02-05T00:21:20.657Z,974.34
2018-02-05T00:21:30.690Z,974.3
2018-02-05T00:21:40.764Z,974.32
2018-02-05T00:21:50.832Z,974.32
2018-02-05T00:22:00.877Z,974.34
2018-02-05T00:22:10.958Z,974.3
2018-02-05T00:22:21.020Z,974.32
2018-02-05T00:22:31.065Z,974.32
2018-02-05T00:22:41.130Z,974.32
2018-02-05T00:22:51.200Z,974.34
2018-02-05T00:23:01.237Z,974.34
2018-02-05T00:23:11.315Z,974.34
2018-02-05T00:23:21.389Z,974.34
2018-02-05T00:23:31.427Z,974.34
2018-02-05T00:23:41.492Z,974.36
2018-02-05T00:23:51.525Z,974.34
2018-02-05T00:24:01.606Z,974.34
2018-02-05T00:24:11.540Z,974.34
2018-02-05T00:24:21.728Z,974.36
2018-02-05T00:24:31.806Z,974.38
2018-02-05T00:24:41.867Z,974.38
2018-02-05T00:24:51.910Z,974.36
2018-02-05T00:25:01.990Z,974.38
2018-02-05T00:25:12.044Z,974.4
2018-02-05T00:25:22.091Z,974.4
2018-02-05T00:25:32.164Z,974.4
2018-02-05T00:25:42.191Z,974.4
2018-02-05T00:25:52.270Z,974.42
2018-02-05T00:26:02.351Z,974.42
2018-02-05T00:26:12.379Z,974.38
2018-02-05T00:26:22.451Z,974.42
2018-02-05T00:26:32.516Z,974.4
2018-02-05T00:26:42.559Z,974.4
2018-02-05T00:26:52.637Z,974.4
2018-02-05T00:27:02.670Z,974.42
2018-02-05T00:27:12.742Z,974.38
2018-02-05T00:27:22.800Z,974.42
2018-02-05T00:27:32.846Z,974.44
2018-02-05T00:27:42.921Z,974.42
2018-02-05T00:27:52.953Z,974.42
2018-02-05T00:28:03.029Z,974.42
2018-02-05T00:28:13.095Z,974.44
2018-02-05T00:28:23.388Z,974.4
2018-02-05T00:28:33.223Z,974.42
2018-02-05T00:28:43.281Z,974.44
2018-02-05T00:28:53.328Z,974.42
2018-02-05T00:29:03.389Z,974.4
2018-02-05T00:29:13.428Z,974.42
2018-02-05T00:29:23.513Z,974.42
2018-02-05T00:29:33.569Z,974.42
2018-02-05T00:29:43.618Z,974.4
2018-02-05T00:29:53.696Z,974.42
2018-02-05T00:30:03.758Z,974.42
2018-02-05T00:30:13.795Z,974.42
2018-02-05T00:30:23.877Z,974.42
2018-02-05T00:30:33.908Z,974.4
2018-02-05T00:30:43.975Z,974.42
2018-02-05T00:30:54.046Z,974.42
2018-02-05T00:31:04.082Z,974.4
2018-02-05T00:31:14.151Z,974.38
2018-02-05T00:31:24.192Z,974.38
2018-02-05T00:31:34.275Z,974.4
2018-02-05T00:31:44.327Z,974.38
2018-02-05T00:31:54.374Z,974.38
2018-02-05T00:32:04.450Z,974.4
2018-02-05T00:32:14.495Z,974.4
2018-02-05T00:32:24.564Z,974.4
2018-02-05T00:32:34.626Z,974.4
2018-02-05T00:32:44.673Z,974.4
2018-02-05T00:32:54.737Z,974.38
2018-02-05T00:33:04.766Z,974.4
2018-02-05T00:33:14.851Z,974.4
2018-02-05T00:33:24.884Z,974.42
2018-02-05T00:33:34.958Z,974.4
2018-02-05T00:33:44.995Z,974.42
2018-02-05T00:33:55.071Z,974.42
2018-02-05T00:34:05.130Z,974.44
2018-02-05T00:34:15.176Z,974.42
2018-02-05T00:34:25.252Z,974.44
2018-02-05T00:34:35.320Z,974.42
2018-02-05T00:34:45.363Z,974.44
2018-02-05T00:34:55.436Z,974.44
2018-02-05T00:35:05.507Z,974.46
2018-02-05T00:35:15.551Z,974.42
2018-02-05T00:35:25.628Z,974.44
2018-02-05T00:35:35.661Z,974.46
2018-02-05T00:35:45.738Z,974.44
2018-02-05T00:35:55.764Z,974.48
2018-02-05T00:36:05.845Z,974.44
2018-02-05T00:36:15.905Z,974.44
2018-02-05T00:36:25.959Z,974.46
2018-02-05T00:36:36.032Z,974.46
2018-02-05T00:36:46.094Z,974.48
2018-02-05T00:36:56.135Z,974.46
2018-02-05T00:37:06.204Z,974.44
2018-02-05T00:37:16.256Z,974.44
2018-02-05T00:37:26.327Z,974.44
2018-02-05T00:37:36.362Z,974.48
2018-02-05T00:37:46.436Z,974.44
2018-02-05T00:37:56.508Z,974.44
2018-02-05T00:38:06.539Z,974.44
2018-02-05T00:38:16.615Z,974.46
2018-02-05T00:38:26.544Z,974.44
2018-02-05T00:38:36.724Z,974.44
2018-02-05T00:38:46.787Z,974.46
2018-02-05T00:38:56.821Z,974.46
2018-02-05T00:39:06.902Z,974.44
2018-02-05T00:39:16.969Z,974.44
2018-02-05T00:39:27.019Z,974.44
2018-02-05T00:39:37.085Z,974.44
2018-02-05T00:39:47.126Z,974.44
2018-02-05T00:39:57.197Z,974.44
2018-02-05T00:40:07.259Z,974.44
2018-02-05T00:40:17.293Z,974.44
2018-02-05T00:40:27.366Z,974.42
2018-02-05T00:40:37.405Z,974.46
2018-02-05T00:40:47.478Z,974.44
2018-02-05T00:40:57.548Z,974.44
2018-02-05T00:41:07.585Z,974.44
2018-02-05T00:41:17.664Z,974.44
2018-02-05T00:41:27.727Z,974.44
2018-02-05T00:41:37.762Z,974.44
2018-02-05T00:41:47.845Z,974.48
2018-02-05T00:41:57.913Z,974.48
2018-02-05T00:42:07.985Z,974.44
2018-02-05T00:42:18.022Z,974.44
2018-02-05T00:42:28.062Z,974.44
2018-02-05T00:42:38.145Z,974.44
2018-02-05T00:42:48.214Z,974.44
2018-02-05T00:42:58.245Z,974.44
2018-02-05T00:43:08.326Z,974.48
2018-02-05T00:43:18.389Z,974.46
2018-02-05T00:43:28.441Z,974.46
2018-02-05T00:43:38.499Z,974.46
2018-02-05T00:43:48.425Z,974.46
2018-02-05T00:43:58.610Z,974.44
2018-02-05T00:44:08.669Z,974.48
2018-02-05T00:44:18.713Z,974.46
2018-02-05T00:44:28.796Z,974.48
2018-02-05T00:44:38.861Z,974.48
2018-02-05T00:44:48.906Z,974.5
2018-02-05T00:44:58.979Z,974.48
2018-02-05T00:45:09.042Z,974.5
2018-02-05T00:45:19.080Z,974.48
2018-02-05T00:45:29.164Z,974.5
2018-02-05T00:45:39.188Z,974.5
2018-02-05T00:45:49.270Z,974.5
2018-02-05T00:45:59.319Z,974.48
2018-02-05T00:46:09.381Z,974.52
2018-02-05T00:46:19.451Z,974.5
2018-02-05T00:46:29.486Z,974.52
2018-02-05T00:46:39.568Z,974.52
2018-02-05T00:46:49.630Z,974.52
2018-02-05T00:46:59.672Z,974.5
2018-02-05T00:47:09.748Z,974.52
2018-02-05T00:47:19.783Z,974.52
2018-02-05T00:47:29.871Z,974.52
2018-02-05T00:47:39.927Z,974.54
2018-02-05T00:47:49.973Z,974.54
2018-02-05T00:48:00.045Z,974.54
2018-02-05T00:48:10.120Z,974.54
2018-02-05T00:48:20.159Z,974.56
2018-02-05T00:48:30.247Z,974.54
2018-02-05T00:48:40.266Z,974.56
2018-02-05T00:48:50.352Z,974.54
2018-02-05T00:49:00.411Z,974.54
2018-02-05T00:49:10.453Z,974.56
2018-02-05T00:49:20.535Z,974.56
2018-02-05T00:49:30.572Z,974.5
2018-02-05T00:49:40.647Z,974.58
2018-02-05T00:49:50.716Z,974.52
2018-02-05T00:50:00.652Z,974.56
2018-02-05T00:50:10.828Z,974.56
2018-02-05T00:50:20.864Z,974.58
2018-02-05T00:50:30.951Z,974.58
2018-02-05T00:50:41.005Z,974.54
2018-02-05T00:50:51.040Z,974.58
2018-02-05T00:51:01.119Z,974.54
2018-02-05T00:51:11.187Z,974.54
2018-02-05T00:51:21.225Z,974.58
2018-02-05T00:51:31.297Z,974.54
2018-02-05T00:51:41.341Z,974.56
2018-02-05T00:51:51.413Z,974.54
2018-02-05T00:52:01.455Z,974.56
2018-02-05T00:52:11.522Z,974.54
2018-02-05T00:52:21.584Z,974.54
2018-02-05T00:52:31.628Z,974.54
2018-02-05T00:52:41.700Z,974.56
2018-02-05T00:52:51.632Z,974.56
2018-02-05T00:53:01.805Z,974.54
2018-02-05T00:53:11.884Z,974.54
2018-02-05T00:53:21.949Z,974.6
2018-02-05T00:53:31.991Z,974.54
2018-02-05T00:53:41.904Z,974.62
2018-02-05T00:53:52.133Z,974.54
2018-02-05T00:54:02.182Z,974.56
2018-02-05T00:54:12.247Z,974.54
2018-02-05T00:54:22.296Z,974.6
2018-02-05T00:54:32.361Z,974.54
2018-02-05T00:54:42.448Z,974.6
2018-02-05T00:54:52.476Z,974.54
2018-02-05T00:55:02.550Z,974.6
2018-02-05T00:55:12.619Z,974.6
2018-02-05T00:55:22.688Z,974.54
2018-02-05T00:55:32.736Z,974.56
2018-02-05T00:55:42.804Z,974.54
2018-02-05T00:55:52.867Z,974.56
2018-02-05T00:56:02.930Z,974.56
2018-02-05T00:56:12.981Z,974.56
2018-02-05T00:56:23.018Z,974.54
2018-02-05T00:56:33.096Z,974.58
2018-02-05T00:56:43.164Z,974.58
2018-02-05T00:56:53.201Z,974.56
2018-02-05T00:57:03.272Z,974.58
2018-02-05T00:57:13.302Z,974.56
2018-02-05T00:57:23.383Z,974.56
2018-02-05T00:57:33.445Z,974.58
2018-02-05T00:57:43.493Z,974.56
2018-02-05T00:57:53.564Z,974.58
2018-02-05T00:58:03.592Z,974.58
2018-02-05T00:58:13.679Z,974.58
2018-02-05T00:58:23.745Z,974.58
2018-02-05T00:58:33.778Z,974.6
2018-02-05T00:58:43.851Z,974.58
2018-02-05T00:58:53.882Z,974.58
2018-02-05T00:59:03.962Z,974.6
2018-02-05T00:59:14.029Z,974.58
2018-02-05T00:59:24.079Z,974.6
2018-02-05T00:59:34.154Z,974.6
2018-02-05T00:59:44.217Z,974.58
2018-02-05T00:59:54.259Z,974.6
2018-02-05T01:00:04.341Z,974.6
2018-02-05T01:00:14.374Z,974.56
2018-02-05T01:00:24.466Z,974.6
2018-02-05T01:00:34.522Z,974.6
2018-02-05T01:00:44.557Z,974.6
2018-02-05T01:00:54.636Z,974.6
2018-02-05T01:01:04.695Z,974.62
2018-02-05T01:01:14.750Z,974.6
2018-02-05T01:01:24.816Z,974.6
2018-02-05T01:01:34.872Z,974.6
2018-02-05T01:01:44.925Z,974.64
2018-02-05T01:01:55.005Z,974.62
2018-02-05T01:02:05.037Z,974.62
2018-02-05T01:02:15.110Z,974.62
2018-02-05T01:02:25.181Z,974.64
2018-02-05T01:02:35.221Z,974.64
2018-02-05T01:02:45.293Z,974.64
2018-02-05T01:02:55.357Z,974.64
2018-02-05T01:03:05.408Z,974.64
2018-02-05T01:03:15.479Z,974.64
2018-02-05T01:03:25.401Z,974.64
2018-02-05T01:03:35.607Z,974.64
2018-02-05T01:03:45.654Z,974.64
2018-02-05T01:03:55.694Z,974.64
2018-02-05T01:04:05.760Z,974.66
2018-02-05T01:04:15.836Z,974.66
2018-02-05T01:04:25.875Z,974.66
2018-02-05T01:04:35.951Z,974.66
2018-02-05T01:04:46.016Z,974.66
2018-02-05T01:04:56.063Z,974.7
2018-02-05T01:05:06.132Z,974.68
2018-02-05T01:05:16.167Z,974.68
2018-02-05T01:05:26.240Z,974.7
2018-02-05T01:05:36.320Z,974.68
2018-02-05T01:05:46.358Z,974.7
2018-02-05T01:05:56.440Z,974.7
2018-02-05T01:06:06.464Z,974.7
2018-02-05T01:06:16.546Z,974.7
2018-02-05T01:06:26.605Z,974.7
2018-02-05T01:06:36.638Z,974.68
2018-02-05T01:06:46.717Z,974.68
2018-02-05T01:06:56.782Z,974.7
2018-02-05T01:07:06.824Z,974.72
2018-02-05T01:07:16.896Z,974.72
2018-02-05T01:07:26.822Z,974.74
2018-02-05T01:07:37.007Z,974.74
2018-02-05T01:07:47.083Z,974.74
2018-02-05T01:07:57.110Z,974.74
2018-02-05T01:08:07.198Z,974.74
2018-02-05T01:08:17.259Z,974.76
2018-02-05T01:08:27.304Z,974.72
2018-02-05T01:08:37.384Z,974.74
2018-02-05T01:08:47.408Z,974.76
2018-02-05T01:08:57.478Z,974.78
2018-02-05T01:09:07.541Z,974.76
2018-02-05T01:09:17.586Z,974.76
2018-02-05T01:09:27.666Z,974.76
2018-02-05T01:09:37.735Z,974.76
2018-02-05T01:09:47.770Z,974.79
2018-02-05T01:09:57.850Z,974.81
2018-02-05T01:10:07.880Z,974.79
2018-02-05T01:10:17.961Z,974.78
2018-02-05T01:10:28.032Z,974.78
2018-02-05T01:10:38.070Z,974.79
2018-02-05T01:10:48.145Z,974.79
2018-02-05T01:10:58.213Z,974.79
2018-02-05T01:11:08.157Z,974.81
2018-02-05T01:11:18.330Z,974.83
2018-02-05T01:11:28.361Z,974.81
2018-02-05T01:11:38.444Z,974.81
2018-02-05T01:11:48.506Z,974.81
2018-02-05T01:11:58.531Z,974.83
2018-02-05T01:12:08.612Z,974.85
2018-02-05T01:12:18.683Z,974.83
2018-02-05T01:12:28.727Z,974.83
2018-02-05T01:12:38.691Z,974.83
2018-02-05T01:12:48.881Z,974.85
2018-02-05T01:12:58.922Z,974.83
2018-02-05T01:13:08.994Z,974.85
2018-02-05T01:13:19.030Z,974.85
2018-02-05T01:13:29.189Z,974.85
2018-02-05T01:13:39.245Z,974.87
2018-02-05T01:13:49.214Z,974.85
2018-02-05T01:13:59.308Z,974.87
2018-02-05T01:14:09.342Z,974.89
2018-02-05T01:14:19.390Z,974.85
2018-02-05T01:14:29.464Z,974.87
2018-02-05T01:14:39.497Z,974.87
2018-02-05T01:14:49.570Z,974.85
2018-02-05T01:14:59.628Z,974.87
2018-02-05T01:15:09.672Z,974.89
2018-02-05T01:15:19.748Z,974.85
2018-02-05T01:15:29.820Z,974.87
2018-02-05T01:15:39.854Z,974.87
2018-02-05T01:15:49.928Z,974.89
2018-02-05T01:15:59.980Z,974.87
2018-02-05T01:16:10.032Z,974.87
2018-02-05T01:16:20.100Z,974.87
2018-02-05T01:16:30.124Z,974.89
2018-02-05T01:16:40.215Z,974.89
2018-02-05T01:16:50.276Z,974.87
2018-02-05T01:17:00.321Z,974.85
2018-02-05T01:17:10.393Z,974.87
2018-02-05T01:17:20.439Z,974.85
2018-02-05T01:17:30.520Z,974.87
2018-02-05T01:17:40.582Z,974.85
2018-02-05T01:17:50.624Z,974.87
2018-02-05T01:18:00.696Z,974.87
2018-02-05T01:18:10.737Z,974.85
2018-02-05T01:18:20.810Z,974.87
2018-02-05T01:18:30.884Z,974.87
2018-02-05T01:18:40.815Z,974.85
2018-02-05T01:18:50.987Z,974.87
2018-02-05T01:19:01.050Z,974.85
2018-02-05T01:19:11.093Z,974.85
2018-02-05T01:19:21.177Z,974.87
2018-02-05T01:19:31.243Z,974.87
2018-02-05T01:19:41.279Z,974.85
2018-02-05T01:19:51.362Z,974.85
2018-02-05T01:20:01.428Z,974.85
2018-02-05T01:20:11.475Z,974.87
2018-02-05T01:20:21.546Z,974.87
2018-02-05T01:20:31.613Z,974.87
2018-02-05T01:20:41.667Z,974.85
2018-02-05T01:20:51.730Z,974.85
2018-02-05T01:21:01.771Z,974.85
2018-02-05T01:21:11.845Z,974.85
2018-02-05T01:21:21.911Z,974.83
2018-02-05T01:21:31.956Z,974.85
2018-02-05T01:21:42.024Z,974.85
2018-02-05T01:21:52.059Z,974.85
2018-02-05T01:22:02.024Z,974.83
2018-02-05T01:22:12.201Z,974.83
2018-02-05T01:22:22.236Z,974.83
2018-02-05T01:22:32.304Z,974.85
2018-02-05T01:22:42.373Z,974.85
2018-02-05T01:22:52.426Z,974.85
2018-02-05T01:23:02.490Z,974.85
2018-02-05T01:23:12.521Z,974.85
2018-02-05T01:23:22.608Z,974.85
2018-02-05T01:23:32.666Z,974.85
2018-02-05T01:23:42.709Z,974.85
2018-02-05T01:23:52.786Z,974.87
2018-02-05T01:24:02.706Z,974.85
2018-02-05T01:24:12.889Z,974.87
2018-02-05T01:24:22.971Z,974.87
2018-02-05T01:24:33.036Z,974.87
2018-02-05T01:24:42.963Z,974.87
2018-02-05T01:24:53.154Z,974.89
2018-02-05T01:25:03.188Z,974.87
2018-02-05T01:25:13.260Z,974.85
2018-02-05T01:25:23.323Z,974.87
2018-02-05T01:25:33.381Z,974.87
2018-02-05T01:25:43.449Z,974.89
2018-02-05T01:25:53.509Z,974.85
2018-02-05T01:26:03.551Z,974.89
2018-02-05T01:26:13.636Z,974.85
2018-02-05T01:26:23.666Z,974.87
2018-02-05T01:26:33.739Z,974.89
2018-02-05T01:26:43.790Z,974.91
2018-02-05T01:26:53.840Z,974.85
2018-02-05T01:27:03.913Z,974.87
2018-02-05T01:27:13.949Z,974.89
2018-02-05T01:27:24.027Z,974.89
2018-02-05T01:27:34.100Z,974.89
2018-02-05T01:27:44.141Z,974.89
2018-02-05T01:27:54.213Z,974.87
2018-02-05T01:28:04.284Z,974.89
2018-02-05T01:28:14.328Z,974.85
2018-02-05T01:28:24.400Z,974.87
2018-02-05T01:28:34.443Z,974.87
2018-02-05T01:28:44.518Z,974.89
2018-02-05T01:28:54.579Z,974.89
2018-02-05T01:29:04.617Z,974.87
2018-02-05T01:29:14.704Z,974.89
2018-02-05T01:29:24.737Z,974.89
2018-02-05T01:29:34.812Z,974.85
2018-02-05T01:29:44.876Z,974.89
2018-02-05T01:29:54.926Z,974.87
2018-02-05T01:30:05.000Z,974.87
2018-02-05T01:30:15.036Z,974.87
2018-02-05T01:30:25.106Z,974.87
2018-02-05T01:30:35.164Z,974.91
2018-02-05T01:30:45.210Z,974.89
2018-02-05T01:30:55.283Z,974.87
2018-02-05T01:31:05.325Z,974.89
2018-02-05T01:31:15.290Z,974.89
2018-02-05T01:31:25.327Z,974.91
2018-02-05T01:31:35.518Z,974.87
2018-02-05T01:31:45.584Z,974.87
2018-02-05T01:31:55.641Z,974.91
2018-02-05T01:32:05.687Z,974.89
2018-02-05T01:32:15.759Z,974.91
2018-02-05T01:32:25.800Z,974.91
2018-02-05T01:32:35.869Z,974.91
2018-02-05T01:32:45.936Z,974.91
2018-02-05T01:32:55.973Z,974.91
2018-02-05T01:33:06.062Z,974.89
2018-02-05T01:33:15.980Z,974.91
2018-02-05T01:33:26.159Z,974.91
2018-02-05T01:33:36.231Z,974.91
2018-02-05T01:33:46.168Z,974.91
2018-02-05T01:33:56.348Z,974.91
2018-02-05T01:34:06.414Z,974.89
2018-02-05T01:34:16.457Z,974.89
2018-02-05T01:34:26.538Z,974.87
2018-02-05T01:34:36.638Z,974.89
2018-02-05T01:34:46.673Z,974.89
2018-02-05T01:34:56.719Z,974.91
2018-02-05T01:35:06.782Z,974.89
2018-02-05T01:35:16.825Z,974.89
2018-02-05T01:35:26.904Z,974.89
2018-02-05T01:35:36.964Z,974.89
2018-02-05T01:35:47.020Z,974.87
2018-02-05T01:35:57.079Z,974.87
2018-02-05T01:36:07.123Z,974.87
2018-02-05T01:36:17.192Z,974.87
2018-02-05T01:36:27.265Z,974.87
2018-02-05T01:36:37.307Z,974.89
2018-02-05T01:36:47.379Z,974.89
2018-02-05T01:36:57.443Z,974.87
2018-02-05T01:37:07.481Z,974.91
2018-02-05T01:37:17.556Z,974.91
2018-02-05T01:37:27.628Z,974.91
2018-02-05T01:37:37.677Z,974.89
2018-02-05T01:37:47.737Z,974.89
2018-02-05T01:37:57.776Z,974.89
2018-02-05T01:38:07.850Z,974.91
2018-02-05T01:38:17.913Z,974.91
2018-02-05T01:38:27.956Z,974.89
2018-02-05T01:38:38.035Z,974.89
2018-02-05T01:38:48.107Z,974.89
2018-02-05T01:38:58.128Z,974.89
2018-02-05T01:39:08.211Z,974.91
2018-02-05T01:39:18.277Z,974.95
2018-02-05T01:39:28.313Z,974.91
2018-02-05T01:39:38.395Z,974.91
2018-02-05T01:39:48.460Z,974.91
2018-02-05T01:39:58.505Z,974.91
2018-02-05T01:40:08.584Z,974.91
2018-02-05T01:40:18.650Z,974.91
2018-02-05T01:40:28.689Z,974.93
2018-02-05T01:40:38.763Z,974.91
2018-02-05T01:40:48.825Z,974.91
2018-02-05T01:40:58.868Z,974.93
2018-02-05T01:41:08.950Z,974.93
2018-02-05T01:41:18.995Z,974.93
2018-02-05T01:41:29.058Z,974.95
2018-02-05T01:41:39.121Z,974.93
2018-02-05T01:41:49.161Z,974.91
2018-02-05T01:41:59.230Z,974.91
2018-02-05T01:42:09.279Z,974.91
2018-02-05T01:42:19.343Z,974.91
2018-02-05T01:42:29.404Z,974.89
2018-02-05T01:42:39.459Z,974.93
2018-02-05T01:42:49.522Z,974.93
2018-02-05T01:42:59.554Z,974.91
2018-02-05T01:43:09.635Z,974.93
2018-02-05T01:43:19.705Z,974.93
2018-02-05T01:43:29.746Z,974.91
2018-02-05T01:43:39.806Z,974.93
2018-02-05T01:43:49.880Z,974.95
2018-02-05T01:43:59.915Z,974.91
2018-02-05T01:44:09.982Z,974.93
2018-02-05T01:44:19.929Z,974.95
2018-02-05T01:44:30.109Z,974.91
2018-02-05T01:44:40.179Z,974.95
2018-02-05T01:44:50.199Z,974.91
2018-02-05T01:45:00.284Z,974.93
2018-02-05T01:45:10.355Z,974.91
2018-02-05T01:45:20.391Z,974.95
2018-02-05T01:45:30.501Z,974.93
2018-02-05T01:45:40.385Z,974.93
2018-02-05T01:45:50.577Z,974.93
2018-02-05T01:46:00.646Z,974.93
2018-02-05T01:46:10.568Z,974.93
2018-02-05T01:46:20.766Z,974.95
2018-02-05T01:46:30.837Z,974.93
2018-02-05T01:46:40.903Z,974.97
2018-02-05T01:46:50.961Z,974.95
2018-02-05T01:47:01.006Z,974.93
2018-02-05T01:47:11.055Z,974.93
2018-02-05T01:47:21.131Z,974.93
2018-02-05T01:47:31.185Z,974.93
2018-02-05T01:47:41.225Z,974.93
2018-02-05T01:47:51.309Z,974.95
2018-02-05T01:48:01.333Z,974.93
2018-02-05T01:48:11.415Z,974.95
2018-02-05T01:48:21.483Z,974.95
2018-02-05T01:48:31.516Z,974.95
2018-02-05T01:48:41.596Z,974.95
2018-02-05T01:48:51.670Z,974.93
2018-02-05T01:49:01.700Z,974.93
2018-02-05T01:49:11.780Z,974.95
2018-02-05T01:49:21.855Z,974.95
2018-02-05T01:49:31.889Z,974.93
2018-02-05T01:49:41.969Z,974.93
2018-02-05T01:49:51.992Z,974.95
2018-02-05T01:50:02.073Z,974.93
2018-02-05T01:50:12.156Z,974.95
2018-02-05T01:50:22.187Z,974.93
2018-02-05T01:50:32.258Z,974.95
2018-02-05T01:50:42.288Z,974.91
2018-02-05T01:50:52.374Z,974.93
2018-02-05T01:51:02.426Z,974.95
2018-02-05T01:51:12.481Z,974.93
2018-02-05T01:51:22.554Z,974.95
2018-02-05T01:51:32.582Z,974.95
2018-02-05T01:51:42.658Z,974.93
2018-02-05T01:51:52.709Z,974.93
2018-02-05T01:52:02.774Z,974.95
2018-02-05T01:52:12.837Z,974.95
2018-02-05T01:52:22.770Z,974.95
2018-02-05T01:52:32.953Z,974.95
2018-02-05T01:52:43.016Z,974.95
2018-02-05T01:52:53.055Z,974.93
2018-02-05T01:53:03.139Z,974.95
2018-02-05T01:53:13.163Z,974.95
2018-02-05T01:53:23.242Z,974.95
2018-02-05T01:53:33.305Z,974.95
2018-02-05T01:53:43.242Z,974.95
2018-02-05T01:53:53.427Z,974.95
2018-02-05T01:54:03.339Z,974.93
2018-02-05T01:54:13.530Z,974.93
2018-02-05T01:54:23.613Z,974.95
2018-02-05T01:54:33.675Z,974.95
2018-02-05T01:54:43.718Z,974.95
2018-02-05T01:54:53.792Z,974.91
2018-02-05T01:55:13.907Z,974.95
2018-02-05T01:55:23.970Z,974.91
2018-02-05T01:55:34.006Z,974.93
2018-02-05T01:55:44.089Z,974.93
2018-02-05T01:55:54.003Z,974.93
2018-02-05T01:56:04.193Z,974.93
2018-02-05T01:56:14.252Z,974.93
2018-02-05T01:56:24.197Z,974.93
2018-02-05T01:56:34.377Z,974.93
2018-02-05T01:56:44.433Z,974.93
2018-02-05T01:56:54.481Z,974.95
2018-02-05T01:57:04.553Z,974.93
2018-02-05T01:57:14.593Z,974.93
2018-02-05T01:57:24.670Z,974.97
2018-02-05T01:57:34.701Z,974.97
2018-02-05T01:57:44.782Z,974.95
2018-02-05T01:57:54.698Z,974.95
2018-02-05T01:58:04.888Z,974.95
2018-02-05T01:58:14.961Z,974.95
2018-02-05T01:58:25.031Z,974.97
2018-02-05T01:58:35.066Z,974.97
2018-02-05T01:58:45.138Z,974.99
2018-02-05T01:58:55.438Z,974.97
2018-02-05T01:59:05.250Z,974.97
2018-02-05T01:59:15.333Z,974.99
2018-02-05T01:59:25.377Z,974.99
2018-02-05T01:59:35.454Z,974.97
2018-02-05T01:59:45.385Z,974.99
2018-02-05T01:59:55.568Z,974.99
2018-02-05T02:00:05.591Z,974.99
2018-02-05T02:00:15.676Z,974.99
2018-02-05T02:00:25.747Z,974.99
2018-02-05T02:00:35.671Z,974.99
2018-02-05T02:00:45.860Z,974.99
2018-02-05T02:00:55.917Z,974.97
2018-02-05T02:01:05.964Z,974.95
2018-02-05T02:01:16.027Z,974.99
2018-02-05T02:01:26.061Z,974.99
2018-02-05T02:01:36.144Z,974.97
2018-02-05T02:01:46.207Z,974.97
2018-02-05T02:01:56.250Z,974.99
2018-02-05T02:02:06.323Z,974.95
2018-02-05T02:02:16.386Z,974.95
2018-02-05T02:02:26.436Z,974.99
2018-02-05T02:02:36.507Z,974.97
2018-02-05T02:02:46.570Z,974.99
2018-02-05T02:02:56.608Z,974.99
2018-02-05T02:03:06.686Z,974.95
2018-02-05T02:03:16.724Z,974.95
2018-02-05T02:03:26.792Z,974.95
2018-02-05T02:03:46.893Z,974.93
2018-02-05T02:03:56.972Z,974.91
2018-02-05T02:04:06.995Z,974.93
2018-02-05T02:04:17.087Z,974.95
2018-02-05T02:04:27.157Z,974.89
2018-02-05T02:04:37.191Z,974.91
2018-02-05T02:04:47.268Z,974.93
2018-02-05T02:04:57.287Z,974.93
2018-02-05T02:05:07.367Z,974.93
2018-02-05T02:05:17.444Z,974.93
2018-02-05T02:05:27.470Z,974.93
2018-02-05T02:05:37.548Z,974.91
2018-02-05T02:05:47.618Z,974.93
2018-02-05T02:05:57.695Z,974.93
2018-02-05T02:06:07.727Z,974.93